createdAt,value
2018-08-07T00:00:41.945Z,96.40
2018-08-07T00:03:10.409Z,96.40
2018-08-07T00:05:39.042Z,96.60
2018-08-07T00:08:08.646Z,96.80
2018-08-07T00:10:37.281Z,96.90
2018-08-07T00:13:05.809Z,97.20
2018-08-07T00:18:02.599Z,97.80
2018-08-07T00:20:31.183Z,97.70
2018-08-07T00:22:59.667Z,98.00
2018-08-07T00:25:28.591Z,98.70
2018-08-07T00:27:57.197Z,99.40
2018-08-07T00:30:25.689Z,99.90
2018-08-07T00:35:22.585Z,99.90
2018-08-07T00:37:51.101Z,99.90
2018-08-07T00:40:20.058Z,99.90
2018-08-07T00:42:48.927Z,99.90
2018-08-07T00:45:19.398Z,99.90
2018-08-07T00:47:48.266Z,99.90
2018-08-07T00:50:18.474Z,99.90
2018-08-07T00:52:47.956Z,99.90
2018-08-07T00:57:45.769Z,99.90
2018-08-07T01:02:42.748Z,99.90
2018-08-07T01:05:13.262Z,99.90
2018-08-07T01:07:41.776Z,99.90
2018-08-07T01:10:13.192Z,99.90
2018-08-07T01:12:41.796Z,99.90
2018-08-07T01:15:12.986Z,99.90
2018-08-07T01:17:41.728Z,99.90
2018-08-07T01:20:13.436Z,99.90
2018-08-07T01:22:42.570Z,99.90
2018-08-07T01:25:17.072Z,99.90
2018-08-07T01:27:48.286Z,99.90
2018-08-07T01:30:21.767Z,99.90
2018-08-07T01:32:50.436Z,99.90
2018-08-07T01:35:19.100Z,99.90
2018-08-07T01:37:47.712Z,99.90
2018-08-07T01:40:16.275Z,99.90
2018-08-07T01:45:12.883Z,99.90
2018-08-07T01:47:41.962Z,99.90
2018-08-07T01:50:12.084Z,99.90
2018-08-07T01:52:40.607Z,99.90
2018-08-07T01:55:10.786Z,99.90
2018-08-07T01:57:39.342Z,99.90
2018-08-07T02:02:38.674Z,99.90
2018-08-07T02:05:09.464Z,99.90
2018-08-07T02:07:38.206Z,99.90
2018-08-07T02:10:09.046Z,99.90
2018-08-07T02:12:37.704Z,99.90
2018-08-07T02:17:35.378Z,99.90
2018-08-07T02:20:03.956Z,99.90
2018-08-07T02:22:32.418Z,99.90
2018-08-07T02:25:00.918Z,99.90
2018-08-07T02:27:29.382Z,99.90
2018-08-07T02:29:57.993Z,99.90
2018-08-07T02:32:26.466Z,99.90
2018-08-07T02:34:54.913Z,99.90
2018-08-07T02:37:23.415Z,99.90
2018-08-07T02:39:52.314Z,99.90
2018-08-07T02:42:20.899Z,99.90
2018-08-07T02:44:49.403Z,99.90
2018-08-07T02:47:17.834Z,99.90
2018-08-07T02:49:46.397Z,99.90
2018-08-07T02:52:14.930Z,99.90
2018-08-07T02:54:43.398Z,99.90
2018-08-07T02:57:11.946Z,99.90
2018-08-07T02:59:40.485Z,99.90
2018-08-07T03:02:09.514Z,99.90
2018-08-07T03:04:38.104Z,99.90
2018-08-07T03:07:07.004Z,99.90
2018-08-07T03:09:35.762Z,99.90
2018-08-07T03:12:04.553Z,99.90
2018-08-07T03:14:33.009Z,99.90
2018-08-07T03:17:01.483Z,99.90
2018-08-07T03:19:29.926Z,99.90
2018-08-07T03:21:58.420Z,99.90
2018-08-07T03:24:26.964Z,99.90
2018-08-07T03:26:55.430Z,99.90
2018-08-07T03:29:24.041Z,99.90
2018-08-07T03:31:52.609Z,99.90
2018-08-07T03:34:26.555Z,99.90
2018-08-07T03:36:55.057Z,99.90
2018-08-07T03:39:23.491Z,99.90
2018-08-07T03:41:52.095Z,99.90
2018-08-07T03:44:20.671Z,99.90
2018-08-07T03:46:49.222Z,99.90
2018-08-07T03:49:17.782Z,99.90
2018-08-07T03:51:46.313Z,99.90
2018-08-07T03:54:14.881Z,99.90
2018-08-07T03:56:43.713Z,99.90
2018-08-07T03:59:12.176Z,99.90
2018-08-07T04:01:40.604Z,99.90
2018-08-07T04:04:09.277Z,99.90
2018-08-07T04:06:37.857Z,99.90
2018-08-07T04:09:10.546Z,99.90
2018-08-07T04:11:39.390Z,99.90
2018-08-07T04:14:08.396Z,99.90
2018-08-07T04:16:38.553Z,99.90
2018-08-07T04:19:07.076Z,99.90
2018-08-07T04:21:35.559Z,99.90
2018-08-07T04:24:04.066Z,99.90
2018-08-07T04:26:32.562Z,99.90
2018-08-07T04:29:01.121Z,99.90
2018-08-07T04:31:29.590Z,99.90
2018-08-07T04:33:58.073Z,99.90
2018-08-07T04:36:26.548Z,99.90
2018-08-07T04:38:55.026Z,99.90
2018-08-07T04:41:23.514Z,99.90
2018-08-07T04:43:52.063Z,99.90
2018-08-07T04:46:20.549Z,99.90
2018-08-07T04:48:49.007Z,99.90
2018-08-07T04:51:17.490Z,99.90
2018-08-07T04:53:45.963Z,99.90
2018-08-07T04:56:14.444Z,99.90
2018-08-07T04:58:42.908Z,99.90
2018-08-07T05:01:11.402Z,99.90
2018-08-07T05:03:39.878Z,99.90
2018-08-07T05:06:08.444Z,99.90
2018-08-07T05:08:36.927Z,99.90
2018-08-07T05:11:05.545Z,99.90
2018-08-07T05:13:34.038Z,99.90
2018-08-07T05:16:03.647Z,99.90
2018-08-07T05:18:32.208Z,99.90
2018-08-07T05:21:00.761Z,99.90
2018-08-07T05:23:29.266Z,99.90
2018-08-07T05:25:57.744Z,99.90
2018-08-07T05:28:26.236Z,99.90
2018-08-07T05:30:54.708Z,99.90
2018-08-07T05:33:23.398Z,99.90
2018-08-07T05:35:51.908Z,99.90
2018-08-07T05:38:20.390Z,99.90
2018-08-07T05:40:48.870Z,99.90
2018-08-07T05:43:17.441Z,99.90
2018-08-07T05:45:46.050Z,99.90
2018-08-07T05:48:14.728Z,99.90
2018-08-07T05:50:43.534Z,99.90
2018-08-07T05:53:11.769Z,99.90
2018-08-07T05:55:40.376Z,99.90
2018-08-07T05:58:08.940Z,99.90
2018-08-07T06:00:37.444Z,99.90
2018-08-07T06:03:06.562Z,99.90
2018-08-07T06:05:35.149Z,99.90
2018-08-07T06:08:03.716Z,99.90
2018-08-07T06:13:01.290Z,99.90
2018-08-07T06:15:29.862Z,99.90
2018-08-07T06:17:58.345Z,99.90
2018-08-07T06:20:26.820Z,99.90
2018-08-07T06:22:55.304Z,99.90
2018-08-07T06:27:53.178Z,99.90
2018-08-07T06:30:21.715Z,99.90
2018-08-07T06:32:50.772Z,99.90
2018-08-07T06:35:19.562Z,99.90
2018-08-07T06:37:48.209Z,99.90
2018-08-07T06:40:16.763Z,99.90
2018-08-07T06:42:45.219Z,99.90
2018-08-07T06:45:15.066Z,99.90
2018-08-07T06:47:43.591Z,99.90
2018-08-07T06:50:15.601Z,99.90
2018-08-07T06:52:48.076Z,99.90
2018-08-07T06:55:16.629Z,99.90
2018-08-07T06:57:45.237Z,99.90
2018-08-07T07:00:16.819Z,99.90
2018-08-07T07:02:45.345Z,99.90
2018-08-07T07:05:13.933Z,99.90
2018-08-07T07:07:42.524Z,99.90
2018-08-07T07:10:12.231Z,99.90
2018-08-07T07:12:41.331Z,99.90
2018-08-07T07:15:11.483Z,99.90
2018-08-07T07:17:39.970Z,99.90
2018-08-07T07:20:11.117Z,99.90
2018-08-07T07:22:39.862Z,99.90
2018-08-07T07:25:09.064Z,99.90
2018-08-07T07:27:37.671Z,99.90
2018-08-07T07:30:12.651Z,99.90
2018-08-07T07:32:41.237Z,99.90
2018-08-07T07:35:09.852Z,99.90
2018-08-07T07:37:38.433Z,99.90
2018-08-07T07:40:07.339Z,99.90
2018-08-07T07:42:36.315Z,99.90
2018-08-07T07:45:07.179Z,99.90
2018-08-07T07:47:36.152Z,99.90
2018-08-07T07:50:06.481Z,99.90
2018-08-07T07:52:35.089Z,99.90
2018-08-07T07:55:03.647Z,99.90
2018-08-07T07:57:32.089Z,99.90
2018-08-07T08:00:00.730Z,99.90
2018-08-07T08:02:29.421Z,99.90
2018-08-07T08:04:58.000Z,99.90
2018-08-07T08:07:26.605Z,99.90
2018-08-07T08:09:55.159Z,99.90
2018-08-07T08:12:23.721Z,99.90
2018-08-07T08:14:52.221Z,99.90
2018-08-07T08:17:20.778Z,99.90
2018-08-07T08:19:49.214Z,99.90
2018-08-07T08:22:17.853Z,99.90
2018-08-07T08:24:46.343Z,99.90
2018-08-07T08:29:43.170Z,99.90
2018-08-07T08:32:12.005Z,99.90
2018-08-07T08:34:40.569Z,99.60
2018-08-07T08:37:09.094Z,98.90
2018-08-07T08:39:37.654Z,98.00
2018-08-07T08:42:06.139Z,97.30
2018-08-07T08:44:34.600Z,96.60
2018-08-07T08:47:03.076Z,96.10
2018-08-07T08:49:31.576Z,95.60
2018-08-07T08:52:00.165Z,94.40
2018-08-07T08:54:28.728Z,93.60
2018-08-07T08:56:57.340Z,92.60
2018-08-07T08:59:25.794Z,91.90
2018-08-07T09:01:54.327Z,91.30
2018-08-07T09:04:22.931Z,86.80
2018-08-07T09:06:51.504Z,86.60
2018-08-07T09:09:20.028Z,84.80
2018-08-07T09:11:48.532Z,83.00
2018-08-07T09:14:17.142Z,83.40
2018-08-07T09:16:45.678Z,81.70
2018-08-07T09:19:14.158Z,80.30
2018-08-07T09:21:42.704Z,82.80
2018-08-07T09:24:11.394Z,81.80
2018-08-07T09:26:39.944Z,80.60
2018-08-07T09:29:08.443Z,75.70
2018-08-07T09:31:36.888Z,75.70
2018-08-07T09:34:05.359Z,74.70
2018-08-07T09:36:33.824Z,72.70
2018-08-07T09:39:02.356Z,72.50
2018-08-07T09:43:58.945Z,74.30
2018-08-07T09:46:27.521Z,73.70
2018-08-07T09:48:56.077Z,73.20
2018-08-07T09:51:24.604Z,73.50
2018-08-07T09:53:53.135Z,73.60
2018-08-07T09:56:21.871Z,73.10
2018-08-07T09:58:50.339Z,71.90
2018-08-07T10:01:24.331Z,71.80
2018-08-07T10:03:52.924Z,73.80
2018-08-07T10:06:21.471Z,71.00
2018-08-07T10:08:50.029Z,68.10
2018-08-07T10:11:18.595Z,69.30
2018-08-07T10:13:47.179Z,66.70
2018-08-07T10:16:15.760Z,67.00
2018-08-07T10:18:44.201Z,66.00
2018-08-07T10:21:12.678Z,65.10
2018-08-07T10:23:41.421Z,64.00
2018-08-07T10:26:09.915Z,63.80
2018-08-07T10:28:38.361Z,61.70
2018-08-07T10:31:06.933Z,59.70
2018-08-07T10:33:35.537Z,60.90
2018-08-07T10:36:04.138Z,60.70
2018-08-07T10:38:32.638Z,60.30
2018-08-07T10:41:01.269Z,61.40
2018-08-07T10:43:29.734Z,59.80
2018-08-07T10:45:58.172Z,58.80
2018-08-07T10:48:26.850Z,57.90
2018-08-07T10:50:55.423Z,56.00
2018-08-07T10:53:23.858Z,56.00
2018-08-07T10:55:52.525Z,53.70
2018-08-07T10:58:21.175Z,54.90
2018-08-07T11:00:49.725Z,52.80
2018-08-07T11:03:18.348Z,50.40
2018-08-07T11:05:46.959Z,50.10
2018-08-07T11:08:15.513Z,49.10
2018-08-07T11:10:44.116Z,48.10
2018-08-07T11:13:12.713Z,48.20
2018-08-07T11:15:41.447Z,47.50
2018-08-07T11:20:38.454Z,47.80
2018-08-07T11:23:06.964Z,48.20
2018-08-07T11:25:35.554Z,46.50
2018-08-07T11:28:04.062Z,47.80
2018-08-07T11:30:32.711Z,48.50
2018-08-07T11:33:02.079Z,49.20
2018-08-07T11:35:30.600Z,49.50
2018-08-07T11:38:00.614Z,49.80
2018-08-07T11:40:29.271Z,49.00
2018-08-07T11:42:58.560Z,48.70
2018-08-07T11:47:56.803Z,49.90
2018-08-07T11:50:26.663Z,49.40
2018-08-07T11:52:55.195Z,47.90
2018-08-07T11:55:24.490Z,48.40
2018-08-07T11:57:53.854Z,48.90
2018-08-07T12:00:24.873Z,48.40
2018-08-07T12:02:53.526Z,48.40
2018-08-07T12:05:22.109Z,49.00
2018-08-07T12:07:50.734Z,47.80
2018-08-07T12:10:19.978Z,47.60
2018-08-07T12:12:48.521Z,48.90
2018-08-07T12:17:47.339Z,47.50
2018-08-07T12:20:16.146Z,46.70
2018-08-07T12:22:44.731Z,46.30
2018-08-07T12:25:14.637Z,45.40
2018-08-07T12:27:43.506Z,46.60
2018-08-07T12:30:17.253Z,45.80
2018-08-07T12:32:46.021Z,45.70
2018-08-07T12:35:14.779Z,46.40
2018-08-07T12:37:43.623Z,46.20
2018-08-07T12:40:28.888Z,45.10
2018-08-07T12:43:01.296Z,46.90
2018-08-07T12:45:30.024Z,46.80
2018-08-07T12:47:58.733Z,47.40
2018-08-07T12:50:27.287Z,47.10
2018-08-07T12:52:55.851Z,46.80
2018-08-07T12:55:24.893Z,47.40
2018-08-07T12:57:53.908Z,47.80
2018-08-07T13:00:24.944Z,47.40
2018-08-07T13:02:53.707Z,47.60
2018-08-07T13:05:22.236Z,47.00
2018-08-07T13:07:50.801Z,47.00
2018-08-07T13:10:20.805Z,47.00
2018-08-07T13:12:50.229Z,47.00
2018-08-07T13:15:20.033Z,46.90
2018-08-07T13:17:49.017Z,46.30
2018-08-07T13:20:17.789Z,47.20
2018-08-07T13:22:47.109Z,47.10
2018-08-07T13:25:17.809Z,47.50
2018-08-07T13:27:46.549Z,48.50
2018-08-07T13:30:21.388Z,48.20
2018-08-07T13:32:49.879Z,48.60
2018-08-07T13:35:18.764Z,48.20
2018-08-07T13:37:48.883Z,45.50
2018-08-07T13:40:19.582Z,45.80
2018-08-07T13:42:48.128Z,45.40
2018-08-07T13:45:18.471Z,45.80
2018-08-07T13:47:47.203Z,45.40
2018-08-07T13:50:18.027Z,44.70
2018-08-07T13:52:47.237Z,44.90
2018-08-07T13:55:16.820Z,45.50
2018-08-07T14:00:19.974Z,45.10
2018-08-07T14:02:49.151Z,44.20
2018-08-07T14:05:18.644Z,44.30
2018-08-07T14:07:48.466Z,45.00
2018-08-07T14:10:17.772Z,44.60
2018-08-07T14:12:46.342Z,45.20
2018-08-07T14:15:16.370Z,42.40
2018-08-07T14:17:45.678Z,43.90
2018-08-07T14:20:15.210Z,43.70
2018-08-07T14:22:44.088Z,45.00
2018-08-07T14:25:20.272Z,45.00
2018-08-07T14:27:49.117Z,44.80
2018-08-07T14:30:19.953Z,43.80
2018-08-07T14:32:48.740Z,43.80
2018-08-07T14:35:17.634Z,44.20
2018-08-07T14:37:47.182Z,43.00
2018-08-07T14:40:20.226Z,43.80
2018-08-07T14:45:20.581Z,43.00
2018-08-07T14:47:50.099Z,43.20
2018-08-07T14:50:20.262Z,42.90
2018-08-07T14:52:48.809Z,42.60
2018-08-07T14:55:17.402Z,43.10
2018-08-07T14:57:46.193Z,43.40
2018-08-07T15:00:17.352Z,43.70
2018-08-07T15:02:46.730Z,43.50
2018-08-07T15:05:15.330Z,43.90
2018-08-07T15:07:44.410Z,44.90
2018-08-07T15:10:15.095Z,44.60
2018-08-07T15:12:43.839Z,43.80
2018-08-07T15:15:17.948Z,44.40
2018-08-07T15:17:46.714Z,44.40
2018-08-07T15:22:46.582Z,45.40
2018-08-07T15:25:16.284Z,44.90
2018-08-07T15:27:44.859Z,44.90
2018-08-07T15:30:16.094Z,45.20
2018-08-07T15:32:45.506Z,45.90
2018-08-07T15:35:15.271Z,46.20
2018-08-07T15:37:44.424Z,46.20
2018-08-07T15:40:13.614Z,46.30
2018-08-07T15:42:43.022Z,46.40
2018-08-07T15:45:12.264Z,46.90
2018-08-07T15:47:40.807Z,46.90
2018-08-07T15:50:12.678Z,47.00
2018-08-07T15:52:42.271Z,47.10
2018-08-07T15:55:12.372Z,47.00
2018-08-07T15:57:40.994Z,47.40
2018-08-07T16:00:17.736Z,47.80
2018-08-07T16:02:46.296Z,47.60
2018-08-07T16:05:15.050Z,47.90
2018-08-07T16:07:43.771Z,48.10
2018-08-07T16:10:15.098Z,48.70
2018-08-07T16:12:44.496Z,48.00
2018-08-07T16:15:12.992Z,48.40
2018-08-07T16:17:41.682Z,48.60
2018-08-07T16:20:10.563Z,48.70
2018-08-07T16:22:40.444Z,49.00
2018-08-07T16:25:10.902Z,49.40
2018-08-07T16:27:40.517Z,49.70
2018-08-07T16:30:14.283Z,49.80
2018-08-07T16:32:43.932Z,50.10
2018-08-07T16:35:14.147Z,50.50
2018-08-07T16:40:18.079Z,50.80
2018-08-07T16:42:49.625Z,50.70
2018-08-07T16:45:19.435Z,51.40
2018-08-07T16:47:48.187Z,51.60
2018-08-07T16:50:20.101Z,52.20
2018-08-07T16:52:50.189Z,51.60
2018-08-07T16:55:18.787Z,51.90
2018-08-07T16:57:47.523Z,52.20
2018-08-07T17:00:16.048Z,52.30
2018-08-07T17:02:44.549Z,52.20
2018-08-07T17:05:15.999Z,52.50
2018-08-07T17:07:45.214Z,52.70
2018-08-07T17:10:16.848Z,52.90
2018-08-07T17:12:45.381Z,53.30
2018-08-07T17:15:14.042Z,53.30
2018-08-07T17:17:43.189Z,53.40
2018-08-07T17:20:14.119Z,54.00
2018-08-07T17:22:43.558Z,54.10
2018-08-07T17:25:14.080Z,54.50
2018-08-07T17:27:43.701Z,54.10
2018-08-07T17:30:14.813Z,55.30
2018-08-07T17:32:43.953Z,54.50
2018-08-07T17:35:16.104Z,55.20
2018-08-07T17:37:44.617Z,54.80
2018-08-07T17:40:14.536Z,54.80
2018-08-07T17:42:43.145Z,54.70
2018-08-07T17:45:12.735Z,54.70
2018-08-07T17:47:41.390Z,55.10
2018-08-07T17:50:12.385Z,55.50
2018-08-07T17:52:40.887Z,55.30
2018-08-07T17:55:10.313Z,55.40
2018-08-07T17:57:39.321Z,55.80
2018-08-07T18:00:11.373Z,55.90
2018-08-07T18:02:40.015Z,56.80
2018-08-07T18:05:09.340Z,56.60
2018-08-07T18:07:39.283Z,56.70
2018-08-07T18:10:09.400Z,56.80
2018-08-07T18:12:38.133Z,56.80
2018-08-07T18:15:09.031Z,56.90
2018-08-07T18:17:37.623Z,56.90
2018-08-07T18:20:07.613Z,56.90
2018-08-07T18:22:36.617Z,57.20
2018-08-07T18:25:05.421Z,57.30
2018-08-07T18:27:34.047Z,57.50
2018-08-07T18:30:02.693Z,57.70
2018-08-07T18:32:31.152Z,57.90
2018-08-07T18:34:59.751Z,57.90
2018-08-07T18:37:28.254Z,58.30
2018-08-07T18:39:56.720Z,58.40
2018-08-07T18:42:25.513Z,58.50
2018-08-07T18:44:54.034Z,58.80
2018-08-07T18:47:22.604Z,59.30
2018-08-07T18:49:51.254Z,59.30
2018-08-07T18:52:19.726Z,59.60
2018-08-07T18:54:48.369Z,59.90
2018-08-07T18:57:16.916Z,60.20
2018-08-07T18:59:45.456Z,60.50
2018-08-07T19:02:14.018Z,61.00
2018-08-07T19:04:42.553Z,61.10
2018-08-07T19:07:11.152Z,61.80
2018-08-07T19:09:39.847Z,62.10
2018-08-07T19:12:08.546Z,62.20
2018-08-07T19:14:37.044Z,62.70
2018-08-07T19:17:05.903Z,62.60
2018-08-07T19:19:34.461Z,63.00
2018-08-07T19:24:31.165Z,63.00
2018-08-07T19:26:59.729Z,63.00
2018-08-07T19:29:28.519Z,63.40
2018-08-07T19:31:57.162Z,63.40
2018-08-07T19:34:25.675Z,64.10
2018-08-07T19:36:54.240Z,63.80
2018-08-07T19:39:22.771Z,63.20
2018-08-07T19:41:51.241Z,63.00
2018-08-07T19:44:21.627Z,63.10
2018-08-07T19:46:50.011Z,63.10
2018-08-07T19:49:19.773Z,63.00
2018-08-07T19:51:54.695Z,62.90
2018-08-07T19:54:23.158Z,62.90
2018-08-07T19:56:57.240Z,63.00
2018-08-07T19:59:25.731Z,63.30
2018-08-07T20:01:54.361Z,63.20
2018-08-07T20:04:23.861Z,64.10
2018-08-07T20:06:52.693Z,64.00
2018-08-07T20:09:21.214Z,63.90
2018-08-07T20:11:49.756Z,63.50
2018-08-07T20:14:18.795Z,63.70
2018-08-07T20:16:47.255Z,63.80
2018-08-07T20:19:15.812Z,64.00
2018-08-07T20:21:44.383Z,63.90
2018-08-07T20:24:30.317Z,63.90
2018-08-07T20:26:59.122Z,64.60
2018-08-07T20:29:27.938Z,65.30
2018-08-07T20:31:56.450Z,65.70
2018-08-07T20:34:24.927Z,65.50
2018-08-07T20:36:53.441Z,65.50
2018-08-07T20:39:22.093Z,65.50
2018-08-07T20:41:50.569Z,65.30
2018-08-07T20:44:19.136Z,65.40
2018-08-07T20:46:47.860Z,65.40
2018-08-07T20:49:16.522Z,65.40
2018-08-07T20:51:45.357Z,65.30
2018-08-07T20:54:13.923Z,65.20
2018-08-07T20:56:42.389Z,65.20
2018-08-07T20:59:11.071Z,65.00
2018-08-07T21:01:39.655Z,65.10
2018-08-07T21:04:08.207Z,65.00
2018-08-07T21:06:36.773Z,65.00
2018-08-07T21:09:07.436Z,64.90
2018-08-07T21:11:35.947Z,64.90
2018-08-07T21:14:04.467Z,64.80
2018-08-07T21:16:33.220Z,64.90
2018-08-07T21:19:01.731Z,65.00
2018-08-07T21:21:30.660Z,64.80
2018-08-07T21:23:59.116Z,65.90
2018-08-07T21:26:27.639Z,64.80
2018-08-07T21:28:56.170Z,64.80
2018-08-07T21:31:24.692Z,65.00
2018-08-07T21:33:53.348Z,64.90
2018-08-07T21:36:21.837Z,65.00
2018-08-07T21:38:50.370Z,64.60
2018-08-07T21:41:18.997Z,64.40
2018-08-07T21:43:47.568Z,64.20
2018-08-07T21:46:16.058Z,63.50
2018-08-07T21:48:44.656Z,62.90
2018-08-07T21:51:13.100Z,62.80
2018-08-07T21:53:41.888Z,62.40
2018-08-07T21:56:10.447Z,62.30
2018-08-07T21:58:38.940Z,62.10
2018-08-07T22:01:07.960Z,62.10
2018-08-07T22:03:36.564Z,62.00
2018-08-07T22:06:05.062Z,62.80
2018-08-07T22:08:33.662Z,61.80
2018-08-07T22:11:02.140Z,62.20
2018-08-07T22:13:30.653Z,62.70
2018-08-07T22:15:59.225Z,63.00
2018-08-07T22:18:27.797Z,63.70
2018-08-07T22:20:56.332Z,71.80
2018-08-07T22:23:24.907Z,78.30
2018-08-07T22:25:53.411Z,82.60
2018-08-07T22:28:21.840Z,90.80
2018-08-07T22:30:50.418Z,97.80
2018-08-07T22:33:19.001Z,99.90
2018-08-07T22:35:47.596Z,99.90
2018-08-07T22:38:16.060Z,99.90
2018-08-07T22:40:44.561Z,99.90
2018-08-07T22:43:13.052Z,99.90
2018-08-07T22:45:41.743Z,99.90
2018-08-07T22:48:10.627Z,99.90
2018-08-07T22:50:42.279Z,99.90
2018-08-07T22:53:10.840Z,99.90
2018-08-07T22:55:39.351Z,99.90
2018-08-07T22:58:07.918Z,99.90
2018-08-07T23:00:36.424Z,99.90
2018-08-07T23:03:05.615Z,99.90
2018-08-07T23:05:34.115Z,99.90
2018-08-07T23:08:02.624Z,99.90
2018-08-07T23:10:31.068Z,99.90
2018-08-07T23:12:59.731Z,99.90
2018-08-07T23:15:28.301Z,99.90
2018-08-07T23:17:56.761Z,99.90
2018-08-07T23:20:26.383Z,99.90
2018-08-07T23:22:56.209Z,99.90
2018-08-07T23:25:24.649Z,99.90
2018-08-07T23:27:53.162Z,99.90
2018-08-07T23:30:22.091Z,99.90
2018-08-07T23:32:50.663Z,99.90
2018-08-07T23:35:19.214Z,99.90
2018-08-07T23:37:47.690Z,99.90
2018-08-07T23:40:16.507Z,99.90
2018-08-07T23:45:14.836Z,99.90
2018-08-07T23:47:43.434Z,99.90
2018-08-07T23:50:12.499Z,99.90
2018-08-07T23:52:41.301Z,99.90
2018-08-07T23:55:10.288Z,99.90
2018-08-07T23:57:38.870Z,99.90
